Time;durP1;ratioP1;P1;durP2;ratioP2;P2;SDS_P1;SDS_P2;PMS_P1;PMS_P2;Temp;Humidity;BMP_temperature;BMP_pressure;BME280_temperature;BME280_humidity;BME280_pressure;Samples;Min_cycle;Max_cycle;Signal;HPM_P1;HPM_P2
2024/01/08 00:00:35;;;;;;;;;;;;;;;-2.55;46.79;99349.96;67584;1282;1016471;-65
2024/01/08 00:03:58;;;;;;;;;;;;;;;-2.46;46.88;99349.63;67523;1282;1016127;-69
2024/01/08 00:07:01;;;;;;;;;;;;;;;-2.46;46.88;99352.53;67553;1282;1015781;-67
2024/01/08 00:10:04;;;;;;;;;;;;;;;-2.48;47.10;99353.90;67553;1282;1016492;-69
2024/01/08 00:13:07;;;;;;;;;;;;;;;-2.48;46.97;99355.79;67565;1282;1016486;-68
2024/01/08 00:16:09;;;;;;;;;;;;;;;-2.52;46.71;99364.69;67534;1282;1015761;-67
2024/01/08 00:19:12;;;;;;;;;;;;;;;-2.56;47.10;99361.95;67521;1282;1016441;-66
2024/01/08 00:22:15;;;;;;;;;;;;;;;-2.52;47.19;99357.84;67572;1282;1016415;-66
2024/01/08 00:25:21;;;;;;;;;;;;;;;-2.57;47.04;99361.77;67553;1282;1018482;-66
2024/01/08 00:28:25;;;;;;;;;;;;;;;-2.59;47.01;99366.58;67528;1282;1016365;-67
2024/01/08 00:31:28;;;;;;;;;;;;;;;-2.68;47.11;99368.10;67544;1282;1016451;-67
2024/01/08 00:34:31;;;;;;;;;;;;;;;-2.65;46.88;99368.11;67551;1282;1016330;-66
2024/01/08 00:37:35;;;;;;;;;;;;;;;-2.59;46.76;99373.25;67577;1282;1016263;-68
2024/01/08 00:40:37;;;;;;;;;;;;;;;-2.51;46.59;99373.60;67551;1282;1016649;-68
2024/01/08 00:43:40;;;;;;;;;;;;;;;-2.54;46.36;99378.39;67515;1282;1016464;-66
2024/01/08 00:46:43;;;;;;;;;;;;;;;-2.51;46.31;99385.25;67564;1282;1016680;-67
2024/01/08 00:49:45;;;;;;;;;;;;;;;-2.55;46.06;99388.50;67552;1282;1016190;-68
2024/01/08 00:52:48;;;;;;;;;;;;;;;-2.59;45.92;99390.20;67521;1282;1016256;-67
2024/01/08 00:55:51;;;;;;;;;;;;;;;-2.60;45.83;99401.16;67560;1282;1016194;-67
2024/01/08 00:58:56;;;;;;;;;;;;;;;-2.65;45.31;99398.59;67545;1282;1016340;-68
2024/01/08 01:01:58;;;;;;;;;;;;;;;-2.74;45.23;99393.61;67532;1282;1016440;-68
2024/01/08 01:05:01;;;;;;;;;;;;;;;-2.79;45.27;99395.30;67539;1282;1016447;-65
2024/01/08 01:08:04;;;;;;;;;;;;;;;-2.74;45.36;99397.20;67538;1282;1016435;-65
2024/01/08 01:11:07;;;;;;;;;;;;;;;-2.77;45.49;99397.19;67502;1282;1017938;-66
2024/01/08 01:14:10;;;;;;;;;;;;;;;-2.72;45.34;99398.91;67553;1282;1016199;-63
2024/01/08 01:17:13;;;;;;;;;;;;;;;-2.75;45.37;99398.23;67515;1282;1016348;-66
2024/01/08 01:20:16;;;;;;;;;;;;;;;-2.43;45.48;99400.15;67563;1282;1016249;-68
2024/01/08 01:23:19;;;;;;;;;;;;;;;-2.38;45.39;99401.52;67536;1282;1016416;-69
2024/01/08 01:26:22;;;;;;;;;;;;;;;-2.38;45.22;99403.24;67543;1282;1016687;-66
2024/01/08 01:29:24;;;;;;;;;;;;;;;-2.51;45.08;99411.96;67524;1282;1016499;-66
2024/01/08 01:32:27;;;;;;;;;;;;;;;-2.44;45.07;99414.71;67518;1282;1016433;-67
2024/01/08 01:35:30;;;;;;;;;;;;;;;-2.58;45.34;99415.89;67549;1282;1015992;-69
2024/01/08 01:38:32;;;;;;;;;;;;;;;-2.58;45.32;99417.27;67529;1282;1016381;-70
2024/01/08 01:41:35;;;;;;;;;;;;;;;-2.43;45.33;99429.27;67514;1282;1016386;-69
2024/01/08 01:44:38;;;;;;;;;;;;;;;-2.49;45.54;99430.98;67572;1282;1016055;-68
2024/01/08 01:47:40;;;;;;;;;;;;;;;-2.36;45.31;99430.65;67531;1282;1016464;-69
2024/01/08 01:50:44;;;;;;;;;;;;;;;-2.39;45.12;99429.80;67547;1282;1015959;-69
2024/01/08 01:53:46;;;;;;;;;;;;;;;-2.43;45.13;99427.21;67494;1282;1016260;-69
2024/01/08 01:56:49;;;;;;;;;;;;;;;-2.52;45.00;99430.98;67542;1282;1016393;-69
2024/01/08 01:59:52;;;;;;;;;;;;;;;-2.67;45.06;99432.65;67571;1282;1016463;-69
2024/01/08 02:02:54;;;;;;;;;;;;;;;-2.66;45.30;99435.23;67522;1282;1018333;-69
2024/01/08 02:05:57;;;;;;;;;;;;;;;-2.54;45.39;99438.67;67521;1282;1016802;-68
2024/01/08 02:09:00;;;;;;;;;;;;;;;-2.47;45.06;99437.83;67541;1282;1018071;-69
2024/01/08 02:12:03;;;;;;;;;;;;;;;-2.42;45.19;99446.74;67504;1282;1017694;-66
2024/01/08 02:15:06;;;;;;;;;;;;;;;-2.38;44.87;99449.15;67528;1282;1016345;-67
2024/01/08 02:18:08;;;;;;;;;;;;;;;-2.44;44.77;99444.16;67558;1282;1016370;-68
2024/01/08 02:21:11;;;;;;;;;;;;;;;-2.53;44.81;99446.02;67513;1282;1018728;-68
2024/01/08 02:24:14;;;;;;;;;;;;;;;-2.50;45.01;99443.48;67555;1282;1016171;-66
2024/01/08 02:27:17;;;;;;;;;;;;;;;-2.49;44.88;99446.05;67510;1282;1016316;-65
2024/01/08 02:30:20;;;;;;;;;;;;;;;-2.49;44.79;99445.71;67534;1282;1015684;-65
2024/01/08 02:33:22;;;;;;;;;;;;;;;-2.51;44.79;99448.77;67545;1282;1016397;-67
2024/01/08 02:36:25;;;;;;;;;;;;;;;-2.56;45.05;99451.86;67561;1282;1016289;-69
2024/01/08 02:39:28;;;;;;;;;;;;;;;-2.48;44.57;99451.02;67497;1282;1017790;-68
2024/01/08 02:42:30;;;;;;;;;;;;;;;-2.40;44.67;99448.12;67534;1282;1016489;-65
2024/01/08 02:45:33;;;;;;;;;;;;;;;-2.33;44.65;99451.55;67520;1282;1016415;-62
2024/01/08 02:48:36;;;;;;;;;;;;;;;-2.16;44.38;99456.02;67515;1282;1016473;-68
2024/01/08 02:51:38;;;;;;;;;;;;;;;-2.11;44.03;99454.31;67558;1282;1016375;-69
2024/01/08 02:54:41;;;;;;;;;;;;;;;-2.28;43.79;99452.24;67535;1282;1017646;-66
2024/01/08 02:57:44;;;;;;;;;;;;;;;-2.45;44.32;99452.73;67509;1282;1016389;-63
2024/01/08 03:00:46;;;;;;;;;;;;;;;-2.32;44.38;99452.76;67553;1282;1018211;-66
2024/01/08 03:03:49;;;;;;;;;;;;;;;-2.31;44.22;99453.96;67584;1282;1016480;-66
2024/01/08 03:06:52;;;;;;;;;;;;;;;-2.36;44.15;99458.06;67537;1282;1016469;-69
2024/01/08 03:09:57;;;;;;;;;;;;;;;-2.42;43.91;99461.82;67558;1282;1016513;-67
2024/01/08 03:12:59;;;;;;;;;;;;;;;-2.38;44.26;99469.88;67519;1282;1018799;-61
2024/01/08 03:16:02;;;;;;;;;;;;;;;-2.28;44.50;99475.20;67518;1282;1016889;-68
2024/01/08 03:19:05;;;;;;;;;;;;;;;-2.23;44.54;99476.59;67566;1282;1016454;-68
2024/01/08 03:22:08;;;;;;;;;;;;;;;-2.18;44.10;99475.21;67526;1282;1018177;-68
2024/01/08 03:25:11;;;;;;;;;;;;;;;-2.26;44.23;99480.86;67577;1282;1016086;-66
2024/01/08 03:28:13;;;;;;;;;;;;;;;-2.32;44.14;99483.77;67517;1282;1018368;-68
2024/01/08 03:31:16;;;;;;;;;;;;;;;-2.42;44.25;99485.63;67541;1282;1016520;-67
2024/01/08 03:34:19;;;;;;;;;;;;;;;-2.34;44.32;99490.10;67549;1282;1019834;-63
2024/01/08 03:37:21;;;;;;;;;;;;;;;-2.39;44.42;99487.52;67530;1282;1016469;-69
2024/01/08 03:40:24;;;;;;;;;;;;;;;-2.35;44.80;99489.06;67539;1282;1016415;-68
2024/01/08 03:43:27;;;;;;;;;;;;;;;-2.41;44.51;99494.54;67571;1282;1016328;-68
2024/01/08 03:46:30;;;;;;;;;;;;;;;-2.60;44.64;99491.73;67536;1282;1016396;-63
2024/01/08 03:49:32;;;;;;;;;;;;;;;-2.57;44.77;99494.66;67531;1282;1016221;-67
2024/01/08 03:52:35;;;;;;;;;;;;;;;-2.50;44.80;99502.91;67576;1282;1016358;-67
2024/01/08 03:55:38;;;;;;;;;;;;;;;-2.51;44.59;99507.02;67536;1282;1016404;-65
2024/01/08 03:58:40;;;;;;;;;;;;;;;-2.51;44.64;99509.76;67540;1282;1016424;-68
2024/01/08 04:01:43;;;;;;;;;;;;;;;-2.59;44.62;99515.89;67581;1282;1016297;-67
2024/01/08 04:04:46;;;;;;;;;;;;;;;-2.69;44.80;99519.46;67501;1282;1016441;-67
2024/01/08 04:07:49;;;;;;;;;;;;;;;-2.73;44.99;99524.23;67606;1282;1016419;-66
2024/01/08 04:10:51;;;;;;;;;;;;;;;-2.74;44.85;99526.80;67580;1282;1016531;-67
2024/01/08 04:13:54;;;;;;;;;;;;;;;-2.77;44.57;99534.84;67536;1282;1016404;-65
2024/01/08 04:16:57;;;;;;;;;;;;;;;-2.81;44.88;99538.93;67567;1282;1016470;-65
2024/01/08 04:20:00;;;;;;;;;;;;;;;-2.78;44.76;99546.13;67553;1282;1016256;-65
2024/01/08 04:23:02;;;;;;;;;;;;;;;-2.63;44.78;99548.25;67520;1282;1016322;-66
2024/01/08 04:26:05;;;;;;;;;;;;;;;-2.61;44.66;99549.11;67584;1282;1016431;-66
2024/01/08 04:29:10;;;;;;;;;;;;;;;-2.61;44.56;99553.56;67538;1282;1016965;-65
2024/01/08 04:32:13;;;;;;;;;;;;;;;-2.64;44.36;99558.52;67560;1282;1016335;-65
2024/01/08 04:35:15;;;;;;;;;;;;;;;-2.54;44.35;99561.12;67558;1282;1016533;-65
2024/01/08 04:38:18;;;;;;;;;;;;;;;-2.50;44.23;99561.14;67524;1282;1016370;-66
2024/01/08 04:41:21;;;;;;;;;;;;;;;-2.54;44.19;99563.19;67576;1282;1016272;-68
2024/01/08 04:44:23;;;;;;;;;;;;;;;-2.58;44.30;99562.14;67576;1282;1016550;-69
2024/01/08 04:47:26;;;;;;;;;;;;;;;-2.55;44.49;99570.54;67538;1282;1016442;-68
2024/01/08 04:50:29;;;;;;;;;;;;;;;-2.51;44.30;99573.64;67568;1282;1016513;-69
2024/01/08 04:53:32;;;;;;;;;;;;;;;-2.50;44.33;99575.52;67578;1282;1017258;-68
2024/01/08 04:56:35;;;;;;;;;;;;;;;-2.49;44.18;99575.54;67509;1282;1016236;-66
2024/01/08 04:59:38;;;;;;;;;;;;;;;-2.51;44.14;99578.09;67524;1282;1017248;-68
2024/01/08 05:02:40;;;;;;;;;;;;;;;-2.70;44.34;99581.95;67498;1282;1016867;-68
2024/01/08 05:05:43;;;;;;;;;;;;;;;-2.83;44.75;99584.11;67584;1282;1017697;-69
2024/01/08 05:08:46;;;;;;;;;;;;;;;-2.84;44.59;99585.48;67580;1282;1017079;-68
2024/01/08 05:11:49;;;;;;;;;;;;;;;-2.83;44.68;99587.88;67534;1282;1016933;-69
2024/01/08 05:14:52;;;;;;;;;;;;;;;-2.84;44.71;99590.44;67575;1282;1016279;-68
2024/01/08 05:17:54;;;;;;;;;;;;;;;-2.94;44.78;99591.58;67525;1282;1016374;-68
2024/01/08 05:20:57;;;;;;;;;;;;;;;-2.91;44.97;99595.53;67538;1282;1016161;-67
2024/01/08 05:24:00;;;;;;;;;;;;;;;-2.93;44.81;99600.99;67549;1282;1016072;-68
2024/01/08 05:27:03;;;;;;;;;;;;;;;-2.90;44.70;99602.21;67529;1282;1016383;-69
2024/01/08 05:30:06;;;;;;;;;;;;;;;-2.81;44.59;99601.92;67552;1282;1016224;-68
2024/01/08 05:33:09;;;;;;;;;;;;;;;-2.73;44.40;99610.18;67508;1282;1016422;-67
2024/01/08 05:36:12;;;;;;;;;;;;;;;-2.76;44.45;99611.70;67593;1282;1016574;-67
2024/01/08 05:39:16;;;;;;;;;;;;;;;-2.84;44.58;99612.17;67502;1282;1016294;-67
2024/01/08 05:42:18;;;;;;;;;;;;;;;-2.90;44.32;99621.20;67540;1282;1016515;-69
2024/01/08 05:45:21;;;;;;;;;;;;;;;-2.86;44.49;99624.50;67571;1282;1016482;-66
2024/01/08 05:48:24;;;;;;;;;;;;;;;-2.83;44.41;99631.36;67552;1282;1016562;-67
2024/01/08 05:51:27;;;;;;;;;;;;;;;-2.82;44.25;99632.21;67541;1282;1016414;-65
2024/01/08 05:54:29;;;;;;;;;;;;;;;-2.74;44.28;99633.46;67588;1282;1016168;-68
2024/01/08 05:57:32;;;;;;;;;;;;;;;-2.80;44.38;99630.85;67527;1282;1018374;-68
2024/01/08 06:00:35;;;;;;;;;;;;;;;-2.78;44.22;99638.75;67513;1282;1016202;-66
2024/01/08 06:03:38;;;;;;;;;;;;;;;-2.71;44.40;99641.86;67580;1282;1016392;-62
2024/01/08 06:06:40;;;;;;;;;;;;;;;-2.70;44.22;99645.80;67570;1282;1016565;-67
2024/01/08 06:09:45;;;;;;;;;;;;;;;-2.73;44.14;99650.76;67557;1282;1017066;-67
2024/01/08 06:12:48;;;;;;;;;;;;;;;-2.73;44.27;99656.42;67599;1282;1016418;-66
2024/01/08 06:15:50;;;;;;;;;;;;;;;-2.87;44.42;99661.63;67594;1282;1016226;-68
2024/01/08 06:18:53;;;;;;;;;;;;;;;-2.93;44.57;99660.56;67545;1282;1016381;-67
2024/01/08 06:21:56;;;;;;;;;;;;;;;-2.90;44.49;99667.60;67594;1282;1016352;-64
2024/01/08 06:24:58;;;;;;;;;;;;;;;-2.88;44.39;99669.66;67537;1282;1016284;-68
2024/01/08 06:28:01;;;;;;;;;;;;;;;-2.81;44.48;99671.60;67542;1282;1016386;-68
2024/01/08 06:31:06;;;;;;;;;;;;;;;-2.76;44.56;99676.95;67553;1282;1016145;-67
2024/01/08 06:34:09;;;;;;;;;;;;;;;-2.70;44.33;99684.86;67517;1282;1016377;-63
2024/01/08 06:37:12;;;;;;;;;;;;;;;-2.71;44.37;99685.71;67553;1282;1016631;-65
2024/01/08 06:40:14;;;;;;;;;;;;;;;-2.80;44.37;99690.78;67572;1282;1016412;-68
2024/01/08 06:43:17;;;;;;;;;;;;;;;-2.79;44.34;99694.73;67512;1282;1016510;-65
2024/01/08 06:46:20;;;;;;;;;;;;;;;-2.78;44.39;99691.30;67572;1282;1016320;-63
2024/01/08 06:49:23;;;;;;;;;;;;;;;-2.85;44.33;99693.83;67541;1282;1016309;-67
2024/01/08 06:52:26;;;;;;;;;;;;;;;-2.80;44.46;99692.48;67585;1282;1016395;-67
2024/01/08 06:55:29;;;;;;;;;;;;;;;-2.71;44.53;99699.73;67523;1282;1016456;-63
2024/01/08 06:58:31;;;;;;;;;;;;;;;-2.74;44.53;99701.26;67552;1282;1016403;-67
2024/01/08 07:01:34;;;;;;;;;;;;;;;-2.73;44.46;99707.09;67595;1282;1016133;-65
2024/01/08 07:04:37;;;;;;;;;;;;;;;-2.71;44.42;99717.04;67555;1282;1016191;-65
2024/01/08 07:07:40;;;;;;;;;;;;;;;-2.79;44.38;99719.38;67527;1282;1016408;-66
2024/01/08 07:10:43;;;;;;;;;;;;;;;-2.79;44.37;99726.06;67530;1282;1016362;-62
2024/01/08 07:13:46;;;;;;;;;;;;;;;-2.86;44.48;99736.10;67511;1282;1016508;-68
2024/01/08 07:16:49;;;;;;;;;;;;;;;-2.82;44.42;99742.64;67585;1282;1016486;-68
2024/01/08 07:19:52;;;;;;;;;;;;;;;-2.79;44.37;99746.41;67533;1282;1016239;-67
2024/01/08 07:22:54;;;;;;;;;;;;;;;-2.71;44.42;99751.09;67580;1282;1016400;-64
2024/01/08 07:25:57;;;;;;;;;;;;;;;-2.69;44.38;99757.63;67594;1282;1016181;-68
2024/01/08 07:29:00;;;;;;;;;;;;;;;-2.64;44.24;99759.38;67524;1282;1016327;-64
2024/01/08 07:32:03;;;;;;;;;;;;;;;-2.52;43.92;99764.10;67599;1282;1016480;-68
2024/01/08 07:35:05;;;;;;;;;;;;;;;-2.55;43.68;99769.38;67553;1282;1015975;-62
2024/01/08 07:38:08;;;;;;;;;;;;;;;-2.52;43.81;99779.16;67533;1282;1016347;-64
2024/01/08 07:41:11;;;;;;;;;;;;;;;-2.39;43.85;99778.56;67556;1282;1016138;-66
2024/01/08 07:44:14;;;;;;;;;;;;;;;-2.41;43.70;99788.32;67548;1282;1016476;-65
2024/01/08 07:47:17;;;;;;;;;;;;;;;-2.27;43.73;99785.16;67562;1282;1016265;-66
2024/01/08 07:50:20;;;;;;;;;;;;;;;-2.16;43.46;99788.14;67548;1282;1016441;-69
2024/01/08 07:53:23;;;;;;;;;;;;;;;-2.14;43.24;99795.52;67581;1282;1016203;-69
2024/01/08 07:56:25;;;;;;;;;;;;;;;-2.08;43.10;99798.65;67557;1282;1016287;-68
2024/01/08 07:59:28;;;;;;;;;;;;;;;-2.01;43.16;99799.03;67537;1282;1016460;-68
2024/01/08 08:02:31;;;;;;;;;;;;;;;-2.09;43.01;99806.52;67603;1282;1017132;-69
2024/01/08 08:05:34;;;;;;;;;;;;;;;-2.12;42.81;99802.05;67535;1282;1016317;-68
2024/01/08 08:08:36;;;;;;;;;;;;;;;-2.04;42.94;99807.92;67539;1282;1018829;-68
2024/01/08 08:11:39;;;;;;;;;;;;;;;-2.09;42.71;99811.15;67563;1282;1016192;-69
2024/01/08 08:14:43;;;;;;;;;;;;;;;-2.07;42.78;99814.92;67539;1282;1016281;-68
2024/01/08 08:17:46;;;;;;;;;;;;;;;-1.91;42.48;99820.52;67518;1282;1016343;-67
2024/01/08 08:20:49;;;;;;;;;;;;;;;-1.92;42.53;99820.34;67526;1282;1016496;-68
2024/01/08 08:23:51;;;;;;;;;;;;;;;-1.95;42.39;99826.48;67590;1282;1016240;-69
2024/01/08 08:26:54;;;;;;;;;;;;;;;-1.90;42.40;99830.45;67563;1282;1016710;-69
2024/01/08 08:29:57;;;;;;;;;;;;;;;-1.87;42.44;99835.79;67511;1282;1016259;-69
2024/01/08 08:33:00;;;;;;;;;;;;;;;-2.02;42.28;99831.77;67579;1282;1016320;-66
2024/01/08 08:36:02;;;;;;;;;;;;;;;-2.13;42.35;99831.70;67567;1282;1015768;-68
2024/01/08 08:39:05;;;;;;;;;;;;;;;-2.20;42.55;99840.90;67543;1282;1017317;-68
2024/01/08 08:42:08;;;;;;;;;;;;;;;-2.15;42.33;99844.70;67567;1282;1016362;-68
2024/01/08 08:45:11;;;;;;;;;;;;;;;-2.13;42.43;99850.71;67519;1282;1016482;-69
2024/01/08 08:48:13;;;;;;;;;;;;;;;-2.10;42.36;99852.62;67585;1282;1016275;-69
2024/01/08 08:51:16;;;;;;;;;;;;;;;-1.99;42.22;99853.38;67552;1282;1016421;-68
2024/01/08 08:54:19;;;;;;;;;;;;;;;-1.83;42.11;99858.79;67499;1282;1016565;-64
2024/01/08 08:57:22;;;;;;;;;;;;;;;-1.64;42.17;99869.70;67599;1282;1016411;-63
2024/01/08 09:00:24;;;;;;;;;;;;;;;-1.44;41.46;99869.64;67594;1282;1016166;-68
2024/01/08 09:03:27;;;;;;;;;;;;;;;-1.65;41.89;99869.70;67535;1282;1016203;-66
2024/01/08 09:06:33;;;;;;;;;;;;;;;-1.45;41.97;99880.26;67552;1282;1016456;-68
2024/01/08 09:09:36;;;;;;;;;;;;;;;-1.42;41.42;99880.96;67577;1282;1016675;-68
2024/01/08 09:12:39;;;;;;;;;;;;;;;-1.62;41.39;99888.58;67511;1282;1016281;-67
2024/01/08 09:15:42;;;;;;;;;;;;;;;-1.80;41.58;99890.02;67558;1282;1016408;-65
2024/01/08 09:18:45;;;;;;;;;;;;;;;-1.75;41.57;99895.88;67545;1282;1016474;-67
2024/01/08 09:21:47;;;;;;;;;;;;;;;-1.94;41.20;99901.58;67541;1282;1016460;-68
2024/01/08 09:24:51;;;;;;;;;;;;;;;-1.82;41.32;99905.45;66234;1282;3619964;-66
2024/01/08 09:27:54;;;;;;;;;;;;;;;-1.57;40.85;99901.30;67531;1282;1016330;-65
2024/01/08 09:30:56;;;;;;;;;;;;;;;-1.38;40.78;99902.26;67578;1282;1016412;-63
2024/01/08 09:33:59;;;;;;;;;;;;;;;-1.17;40.34;99902.52;67543;1282;1016445;-65
2024/01/08 09:37:02;;;;;;;;;;;;;;;-1.02;39.98;99900.86;67515;1282;1016468;-64
2024/01/08 09:40:13;;;;;;;;;;;;;;;-0.87;39.84;99893.50;67531;1282;1016284;-68
2024/01/08 09:43:18;;;;;;;;;;;;;;;-0.74;39.49;99893.20;67520;1282;1016803;-65
2024/01/08 09:46:21;;;;;;;;;;;;;;;-0.45;39.57;99892.39;67601;1282;1016303;-66
2024/01/08 09:49:24;;;;;;;;;;;;;;;-0.21;39.35;99899.80;67545;1282;1016208;-66
2024/01/08 09:52:27;;;;;;;;;;;;;;;-0.18;38.28;99892.40;67585;1282;1015842;-64
2024/01/08 09:55:29;;;;;;;;;;;;;;;-0.15;38.39;99899.10;67580;1282;1016504;-63
2024/01/08 09:58:32;;;;;;;;;;;;;;;-0.16;38.75;99899.96;67531;1282;1016308;-67
2024/01/08 10:01:35;;;;;;;;;;;;;;;-0.15;38.37;99902.20;67578;1282;1016291;-66
2024/01/08 10:04:38;;;;;;;;;;;;;;;-0.12;38.57;99900.30;67543;1282;1016497;-69
2024/01/08 10:07:40;;;;;;;;;;;;;;;-0.23;38.46;99902.20;67576;1282;1016367;-67
2024/01/08 10:10:43;;;;;;;;;;;;;;;-0.18;38.49;99905.64;67605;1282;1016512;-68
2024/01/08 10:13:46;;;;;;;;;;;;;;;-0.05;38.33;99909.94;67550;1282;1016846;-63
2024/01/08 10:16:48;;;;;;;;;;;;;;;-0.05;38.24;99914.06;67531;1282;1016473;-65
2024/01/08 10:19:51;;;;;;;;;;;;;;;-0.01;38.29;99913.03;67614;1282;1017925;-65
2024/01/08 10:22:54;;;;;;;;;;;;;;;0.14;38.37;99911.46;67605;1282;1016361;-67
2024/01/08 10:25:56;;;;;;;;;;;;;;;0.23;37.92;99915.40;67555;1282;1016311;-66
2024/01/08 10:28:59;;;;;;;;;;;;;;;0.22;37.89;99917.64;67581;1282;1016524;-60
2024/01/08 10:32:02;;;;;;;;;;;;;;;0.42;38.42;99915.38;67555;1282;1017184;-62
2024/01/08 10:35:05;;;;;;;;;;;;;;;0.60;37.41;99921.34;67509;1282;1016510;-62
2024/01/08 10:38:08;;;;;;;;;;;;;;;0.41;37.05;99920.19;67547;1282;1016401;-63
2024/01/08 10:41:11;;;;;;;;;;;;;;;0.17;37.54;99924.02;67662;1282;1016108;-65
2024/01/08 10:44:14;;;;;;;;;;;;;;;0.05;37.20;99920.59;67549;1282;1016364;-66
2024/01/08 10:47:17;;;;;;;;;;;;;;;0.05;37.78;99928.66;67536;1282;1016498;-67
2024/01/08 10:50:20;;;;;;;;;;;;;;;0.22;38.37;99931.75;67611;1282;1016147;-67
2024/01/08 10:53:22;;;;;;;;;;;;;;;0.54;38.05;99932.91;67456;1282;1018914;-66
2024/01/08 10:56:26;;;;;;;;;;;;;;;0.73;37.60;99929.06;67434;1282;1016447;-68
2024/01/08 10:59:29;;;;;;;;;;;;;;;0.93;37.47;99928.48;68278;1282;1015544;-67
2024/01/08 11:02:37;;;;;;;;;;;;;;;1.09;37.33;99926.86;67656;1282;1018004;-66
2024/01/08 11:05:39;;;;;;;;;;;;;;;1.18;37.05;99929.23;67488;1282;1016884;-65
2024/01/08 11:08:43;;;;;;;;;;;;;;;1.24;37.15;99935.39;67535;1282;1016477;-66
2024/01/08 11:11:46;;;;;;;;;;;;;;;1.38;37.06;99933.24;67526;1282;1016473;-66
2024/01/08 11:14:48;;;;;;;;;;;;;;;1.49;36.81;99935.60;67582;1282;1016342;-67
2024/01/08 11:17:52;;;;;;;;;;;;;;;1.62;36.73;99936.56;67589;1282;1016130;-67
2024/01/08 11:20:56;;;;;;;;;;;;;;;1.71;36.71;99931.66;67582;1282;1016485;-66
2024/01/08 11:23:59;;;;;;;;;;;;;;;1.86;36.69;99929.84;67612;1282;1016600;-67
2024/01/08 11:27:02;;;;;;;;;;;;;;;1.72;35.99;99934.05;67617;1282;1016456;-68
2024/01/08 11:30:05;;;;;;;;;;;;;;;1.45;36.28;99942.52;67566;1282;1018693;-67
2024/01/08 11:33:09;;;;;;;;;;;;;;;1.60;36.32;99941.90;67613;1282;1016243;-67
2024/01/08 11:36:11;;;;;;;;;;;;;;;1.67;35.99;99937.20;67603;1282;1017302;-68
2024/01/08 11:39:14;;;;;;;;;;;;;;;1.42;36.02;99941.33;67529;1282;1017175;-66
2024/01/08 11:42:18;;;;;;;;;;;;;;;1.40;36.21;99943.93;67591;1282;1016446;-67
2024/01/08 11:45:21;;;;;;;;;;;;;;;1.26;36.26;99948.31;67584;1282;1016320;-68
2024/01/08 11:48:24;;;;;;;;;;;;;;;0.97;36.38;99955.50;67551;1282;1016473;-65
2024/01/08 11:51:26;;;;;;;;;;;;;;;0.97;36.56;99952.73;67552;1282;1016504;-67
2024/01/08 11:54:29;;;;;;;;;;;;;;;1.13;36.38;99949.58;67598;1282;1016255;-68
2024/01/08 11:57:32;;;;;;;;;;;;;;;0.97;36.32;99947.92;67594;1282;1016264;-67
2024/01/08 12:00:35;;;;;;;;;;;;;;;0.83;36.42;99951.59;67559;1282;1016491;-68
2024/01/08 12:03:37;;;;;;;;;;;;;;;0.94;36.71;99945.19;67588;1282;1015980;-68
2024/01/08 12:06:40;;;;;;;;;;;;;;;1.14;36.52;99944.23;67560;1282;1016425;-68
2024/01/08 12:09:43;;;;;;;;;;;;;;;1.23;36.45;99949.52;67552;1282;1016337;-67
2024/01/08 12:12:46;;;;;;;;;;;;;;;1.27;36.11;99952.27;67587;1282;1016262;-68
2024/01/08 12:15:48;;;;;;;;;;;;;;;1.29;36.14;99950.71;67539;1282;1016439;-66
2024/01/08 12:18:51;;;;;;;;;;;;;;;1.32;36.10;99953.80;67582;1282;1016920;-67
2024/01/08 12:21:54;;;;;;;;;;;;;;;1.51;35.99;99960.24;67597;1282;1016294;-66
2024/01/08 12:24:56;;;;;;;;;;;;;;;1.53;35.79;99958.33;67608;1282;1016478;-66
2024/01/08 12:27:59;;;;;;;;;;;;;;;1.52;35.55;99952.65;67570;1282;1016230;-67
2024/01/08 12:31:02;;;;;;;;;;;;;;;1.39;35.72;99960.48;67594;1282;1016462;-67
2024/01/08 12:34:04;;;;;;;;;;;;;;;1.44;36.15;99960.96;67592;1282;1016451;-67
2024/01/08 12:37:07;;;;;;;;;;;;;;;1.47;35.66;99963.20;67535;1282;1016207;-68
2024/01/08 12:40:10;;;;;;;;;;;;;;;1.38;35.79;99965.30;67582;1282;1017493;-66
2024/01/08 12:43:12;;;;;;;;;;;;;;;1.35;35.46;99966.53;67581;1282;1016185;-65
2024/01/08 12:46:15;;;;;;;;;;;;;;;1.16;35.76;99964.38;67533;1282;1018690;-65
2024/01/08 12:49:18;;;;;;;;;;;;;;;0.95;35.64;99963.77;67599;1282;1015948;-66
2024/01/08 12:52:22;;;;;;;;;;;;;;;1.02;36.15;99970.98;67596;1282;1019190;-64
2024/01/08 12:55:25;;;;;;;;;;;;;;;0.96;35.79;99973.76;67527;1282;1016433;-65
2024/01/08 12:58:28;;;;;;;;;;;;;;;1.16;35.92;99985.73;67537;1282;1016419;-66
2024/01/08 13:01:30;;;;;;;;;;;;;;;1.03;35.93;99989.58;67601;1282;1016331;-67
2024/01/08 13:04:33;;;;;;;;;;;;;;;0.95;35.96;99993.05;67587;1282;1016398;-66
2024/01/08 13:07:36;;;;;;;;;;;;;;;0.73;35.93;99995.52;67543;1282;1017244;-67
2024/01/08 13:10:38;;;;;;;;;;;;;;;0.72;36.24;99996.38;67580;1282;1016416;-62
2024/01/08 13:13:41;;;;;;;;;;;;;;;0.58;36.36;100001.07;67603;1282;1016292;-66
2024/01/08 13:16:44;;;;;;;;;;;;;;;0.65;36.51;100004.14;67526;1282;1016289;-63
2024/01/08 13:19:46;;;;;;;;;;;;;;;0.89;36.34;100009.27;67586;1282;1018150;-67
2024/01/08 13:22:49;;;;;;;;;;;;;;;0.90;36.08;100016.31;67580;1282;1015718;-67
2024/01/08 13:25:52;;;;;;;;;;;;;;;0.76;36.16;100018.41;67531;1282;1016102;-65
2024/01/08 13:28:56;;;;;;;;;;;;;;;0.76;36.10;100021.70;67557;1282;1016489;-63
2024/01/08 13:31:59;;;;;;;;;;;;;;;0.65;36.26;100029.98;67588;1282;1016673;-62
2024/01/08 13:35:01;;;;;;;;;;;;;;;0.45;36.50;100035.84;67559;1282;1016493;-67
2024/01/08 13:38:04;;;;;;;;;;;;;;;0.34;36.71;100043.24;67549;1282;1016478;-64
2024/01/08 13:41:07;;;;;;;;;;;;;;;0.34;36.84;100043.25;67584;1282;1016407;-64
2024/01/08 13:44:10;;;;;;;;;;;;;;;0.20;36.72;100050.97;67544;1282;1016280;-63
2024/01/08 13:47:13;;;;;;;;;;;;;;;0.06;37.00;100054.41;67569;1282;1018346;-65
2024/01/08 13:50:15;;;;;;;;;;;;;;;-0.12;37.28;100051.10;67542;1282;1016442;-66
2024/01/08 13:53:19;;;;;;;;;;;;;;;-0.20;37.21;100053.66;67524;1282;1016385;-66
2024/01/08 13:56:22;;;;;;;;;;;;;;;-0.29;37.55;100056.05;67534;1282;1016174;-67
2024/01/08 13:59:25;;;;;;;;;;;;;;;-0.31;37.56;100060.00;67593;1282;1019592;-65
2024/01/08 14:02:29;;;;;;;;;;;;;;;-0.49;37.89;100065.77;67535;1282;1016641;-67
2024/01/08 14:05:32;;;;;;;;;;;;;;;-0.56;38.09;100066.95;67535;1282;1016511;-68
2024/01/08 14:08:35;;;;;;;;;;;;;;;-0.54;37.98;100076.40;67582;1282;1016359;-67
2024/01/08 14:11:38;;;;;;;;;;;;;;;-0.71;38.43;100086.13;67546;1282;1016353;-67
2024/01/08 14:14:41;;;;;;;;;;;;;;;-0.71;38.35;100087.33;67571;1282;1016128;-67
2024/01/08 14:17:44;;;;;;;;;;;;;;;-0.74;38.55;100096.59;67563;1282;1016371;-66
2024/01/08 14:20:47;;;;;;;;;;;;;;;-0.76;38.46;100097.60;67529;1282;1016371;-67
2024/01/08 14:23:49;;;;;;;;;;;;;;;-0.91;38.71;100106.11;67588;1282;1016459;-67
2024/01/08 14:26:54;;;;;;;;;;;;;;;-1.01;38.93;100109.30;67547;1282;1019462;-63
2024/01/08 14:29:58;;;;;;;;;;;;;;;-1.21;38.96;100111.40;67536;1282;1016501;-66
2024/01/08 14:33:01;;;;;;;;;;;;;;;-1.43;39.29;100123.23;67586;1282;1016484;-65
2024/01/08 14:36:04;;;;;;;;;;;;;;;-1.28;39.12;100123.53;67551;1282;1016485;-67
2024/01/08 14:39:07;;;;;;;;;;;;;;;-1.38;39.25;100127.39;67513;1282;1016462;-66
2024/01/08 14:42:10;;;;;;;;;;;;;;;-1.50;39.43;100133.80;67585;1282;1016427;-67
2024/01/08 14:45:13;;;;;;;;;;;;;;;-1.59;39.46;100138.36;67524;1282;1016002;-66
2024/01/08 14:48:16;;;;;;;;;;;;;;;-1.74;39.68;100138.56;67581;1282;1016366;-65
2024/01/08 14:51:19;;;;;;;;;;;;;;;-1.90;39.98;100142.67;67520;1282;1016319;-67
2024/01/08 14:54:21;;;;;;;;;;;;;;;-1.95;40.08;100144.52;67595;1282;1016514;-67
2024/01/08 14:57:26;;;;;;;;;;;;;;;-2.05;40.11;100148.34;67547;1282;1016690;-67
2024/01/08 15:00:28;;;;;;;;;;;;;;;-2.13;40.21;100157.34;67540;1282;1016327;-66
2024/01/08 15:03:31;;;;;;;;;;;;;;;-2.19;40.23;100166.34;67533;1282;1016480;-66
2024/01/08 15:06:34;;;;;;;;;;;;;;;-2.24;40.32;100171.25;67576;1282;1016505;-66
2024/01/08 15:09:37;;;;;;;;;;;;;;;-2.27;40.38;100173.80;67573;1282;1016426;-67
2024/01/08 15:12:40;;;;;;;;;;;;;;;-2.35;40.37;100179.70;67582;1282;1016507;-67
2024/01/08 15:15:43;;;;;;;;;;;;;;;-2.52;40.67;100193.16;67534;1282;1016434;-66
2024/01/08 15:18:45;;;;;;;;;;;;;;;-2.63;40.76;100196.61;67569;1282;1015766;-67
2024/01/08 15:21:51;;;;;;;;;;;;;;;-2.72;41.00;100203.83;67558;1282;1018466;-67
2024/01/08 15:24:55;;;;;;;;;;;;;;;-2.74;41.08;100209.63;67575;1282;1016008;-66
2024/01/08 15:27:58;;;;;;;;;;;;;;;-2.85;41.23;100217.84;67535;1282;1016488;-66